Time;durP1;ratioP1;P1;durP2;ratioP2;P2;SDS_P1;SDS_P2;PMS_P1;PMS_P2;Temp;Humidity;BMP_temperature;BMP_pressure;BME280_temperature;BME280_humidity;BME280_pressure;Samples;Min_cycle;Max_cycle;Signal;HPM_P1;HPM_P2
2023/06/04 00:01:10;;;;;;;7.93;7.20;;;16.70;91.30;;;;;;4893246;29;20241;-78
2023/06/04 00:03:35;;;;;;;8.20;7.40;;;16.70;91.50;;;;;;4895573;29;20449;-76
2023/06/04 00:06:01;;;;;;;7.70;7.00;;;18.30;92.50;;;;;;4897537;29;20178;-76
2023/06/04 00:08:26;;;;;;;9.10;8.20;;;16.70;91.90;;;;;;4896352;29;20652;-77
2023/06/04 00:10:52;;;;;;;9.03;7.00;;;16.80;92.00;;;;;;4896510;29;20222;-76
2023/06/04 00:13:18;;;;;;;7.37;6.73;;;16.90;92.40;;;;;;4896362;29;20225;-76
2023/06/04 00:15:43;;;;;;;6.90;6.30;;;16.60;92.30;;;;;;4893311;29;20250;-76
2023/06/04 00:18:10;;;;;;;7.83;6.90;;;16.70;92.20;;;;;;4913248;29;20209;-76
2023/06/04 00:20:36;;;;;;;8.45;7.53;;;16.60;92.50;;;;;;4911970;29;20218;-76
2023/06/04 00:23:02;;;;;;;6.93;6.23;;;16.50;92.80;;;;;;4898102;29;20186;-76
2023/06/04 00:25:28;;;;;;;9.00;7.50;;;16.50;92.90;;;;;;4895373;29;20444;-76
2023/06/04 00:27:53;;;;;;;7.70;6.67;;;16.20;92.90;;;;;;4914692;29;20182;-77
2023/06/04 00:30:19;;;;;;;8.57;7.77;;;16.30;93.10;;;;;;4914685;29;20289;-77
2023/06/04 00:32:46;;;;;;;7.97;7.17;;;16.50;93.20;;;;;;4911941;29;20694;-77
2023/06/04 00:35:12;;;;;;;9.73;7.50;;;16.50;93.20;;;;;;4895589;29;20194;-77
2023/06/04 00:37:37;;;;;;;8.20;7.40;;;16.30;93.30;;;;;;4892687;29;20186;-77
2023/06/04 00:40:05;;;;;;;7.93;7.20;;;16.40;93.50;;;;;;4898454;29;20213;-76
2023/06/04 00:42:31;;;;;;;7.40;6.70;;;16.30;93.60;;;;;;4899722;29;20316;-76
2023/06/04 00:44:57;;;;;;;8.60;7.80;;;16.60;94.10;;;;;;4912627;29;20701;-76
2023/06/04 00:47:23;;;;;;;9.02;7.45;;;16.10;94.10;;;;;;4895178;29;20269;-76
2023/06/04 00:49:49;;;;;;;7.87;7.07;;;16.10;94.20;;;;;;4910944;29;20664;-76
2023/06/04 00:52:16;;;;;;;7.88;7.07;;;15.90;94.40;;;;;;4912377;29;20485;-75
2023/06/04 00:54:42;;;;;;;8.27;7.43;;;16.20;94.60;;;;;;4895700;29;20660;-76
2023/06/04 00:57:08;;;;;;;7.53;6.70;;;16.10;94.50;;;;;;4912353;29;20214;-75
2023/06/04 00:59:36;;;;;;;8.35;7.03;;;16.30;94.70;;;;;;4910619;29;21183;-78
2023/06/04 01:02:08;;;;;;;8.38;7.55;;;16.00;94.70;;;;;;4895129;29;20978;-75
2023/06/04 01:04:55;;;;;;;7.65;7.00;;;15.80;94.70;;;;;;4913796;29;20182;-76
2023/06/04 01:07:22;;;;;;;12.02;7.00;;;15.90;95.10;;;;;;4912059;29;20190;-76
2023/06/04 01:09:49;;;;;;;8.50;7.65;;;15.90;95.20;;;;;;4895998;29;20202;-76
2023/06/04 01:12:17;;;;;;;8.13;7.00;;;15.80;95.60;;;;;;4897597;29;20553;-75
2023/06/04 01:14:43;;;;;;;7.10;6.50;;;15.70;95.90;;;;;;4913062;29;20190;-76
2023/06/04 01:17:17;;;;;;;7.90;7.17;;;15.90;95.80;;;;;;4911219;29;20690;-76
2023/06/04 01:20:05;;;;;;;8.20;7.40;;;15.80;95.90;;;;;;4893994;29;20497;-77
2023/06/04 01:22:48;;;;;;;7.93;7.13;;;15.90;96.00;;;;;;4907166;29;20699;-76
2023/06/04 01:25:20;;;;;;;8.52;7.40;;;15.80;95.90;;;;;;4898374;29;20606;-77
2023/06/04 01:27:55;;;;;;;8.10;7.30;;;15.80;96.00;;;;;;4913343;29;20191;-78
2023/06/04 01:30:25;;;;;;;7.50;6.80;;;15.70;96.00;;;;;;4915380;29;20206;-77
2023/06/04 01:32:52;;;;;;;8.98;8.07;;;15.70;96.10;;;;;;4913112;29;20186;-78
2023/06/04 01:35:17;;;;;;;7.40;6.70;;;15.70;96.30;;;;;;4914174;29;20197;-77
2023/06/04 01:37:43;;;;;;;7.83;7.00;;;15.70;96.40;;;;;;4911913;29;20194;-78
2023/06/04 01:40:09;;;;;;;7.43;6.80;;;15.60;96.50;;;;;;4912784;29;20280;-76
2023/06/04 01:42:35;;;;;;;8.95;7.05;;;15.50;96.40;;;;;;4908271;29;20215;-77
2023/06/04 01:45:00;;;;;;;8.52;7.20;;;15.40;96.70;;;;;;4898466;29;20214;-78
2023/06/04 01:47:26;;;;;;;8.53;7.83;;;15.60;96.90;;;;;;4897254;29;20280;-77
2023/06/04 01:49:52;;;;;;;8.37;7.37;;;15.30;96.80;;;;;;4914777;29;20215;-76
2023/06/04 01:52:17;;;;;;;7.30;6.60;;;15.40;97.00;;;;;;4898135;29;20198;-76
2023/06/04 01:54:43;;;;;;;8.13;7.33;;;15.30;96.90;;;;;;4901256;29;20272;-76
2023/06/04 01:57:09;;;;;;;8.30;7.50;;;15.30;97.20;;;;;;4915842;29;20205;-76
2023/06/04 01:59:36;;;;;;;7.70;7.00;;;15.20;97.10;;;;;;4900259;29;20241;-76
2023/06/04 02:02:02;;;;;;;8.18;7.45;;;15.20;97.20;;;;;;4914177;29;20238;-77
2023/06/04 02:04:28;;;;;;;9.60;7.17;;;15.40;97.20;;;;;;4898708;29;20198;-76
2023/06/04 02:06:54;;;;;;;8.37;7.60;;;15.30;97.10;;;;;;4896125;29;20442;-76
2023/06/04 02:09:19;;;;;;;7.93;6.23;;;15.10;97.00;;;;;;4912606;29;20185;-77
2023/06/04 02:11:45;;;;;;;7.67;6.97;;;15.30;97.50;;;;;;4912518;29;20593;-76
2023/06/04 02:14:10;;;;;;;8.90;7.73;;;15.10;97.60;;;;;;4915107;29;20190;-77
2023/06/04 02:16:37;;;;;;;8.07;7.13;;;15.00;97.60;;;;;;4913806;29;20668;-77
2023/06/04 02:19:03;;;;;;;7.97;7.22;;;14.90;97.60;;;;;;4912812;29;20277;-77
2023/06/04 02:21:29;;;;;;;9.20;8.50;;;14.90;97.70;;;;;;4911610;29;20292;-76
2023/06/04 02:23:54;;;;;;;7.93;7.13;;;15.00;98.30;;;;;;4896078;29;20280;-77
2023/06/04 02:26:21;;;;;;;9.73;6.83;;;14.90;97.80;;;;;;4898814;29;20190;-77
2023/06/04 02:28:47;;;;;;;7.30;6.63;;;14.70;97.90;;;;;;4900211;29;20202;-76
2023/06/04 02:31:12;;;;;;;7.23;6.60;;;14.50;98.20;;;;;;4899949;29;20209;-77
2023/06/04 02:33:38;;;;;;;8.30;7.50;;;14.60;98.50;;;;;;4912801;29;20224;-76
2023/06/04 02:36:04;;;;;;;8.40;7.60;;;14.60;98.50;;;;;;4906970;29;20190;-77
2023/06/04 02:38:29;;;;;;;7.30;6.60;;;14.70;98.60;;;;;;4895640;29;20336;-77
2023/06/04 02:40:55;;;;;;;7.90;7.20;;;14.60;98.60;;;;;;4913593;29;20537;-77
2023/06/04 02:43:21;;;;;;;7.73;7.00;;;14.70;98.60;;;;;;4898499;29;20194;-77
2023/06/04 02:45:46;;;;;;;7.93;6.93;;;14.70;98.60;;;;;;4913610;29;20219;-77
2023/06/04 02:48:12;;;;;;;7.80;6.50;;;14.60;98.60;;;;;;4913434;29;20615;-77
2023/06/04 02:50:37;;;;;;;8.70;6.80;;;14.60;98.70;;;;;;4897562;29;20218;-77
2023/06/04 02:53:03;;;;;;;8.70;7.40;;;14.60;98.80;;;;;;4896181;29;20198;-77
2023/06/04 02:55:28;;;;;;;7.67;7.00;;;14.40;98.80;;;;;;4900913;29;20186;-77
2023/06/04 02:57:54;;;;;;;7.33;6.63;;;14.70;99.10;;;;;;4897380;29;20201;-77
2023/06/04 03:00:20;;;;;;;8.07;7.27;;;14.60;99.00;;;;;;4910467;29;20759;-77
2023/06/04 03:02:47;;;;;;;8.00;7.30;;;14.60;99.10;;;;;;4895577;29;20194;-77
2023/06/04 03:05:14;;;;;;;9.05;7.65;;;14.50;99.00;;;;;;4897938;29;20734;-77
2023/06/04 03:07:43;;;;;;;8.30;7.40;;;14.40;99.10;;;;;;4913355;29;20218;-77
2023/06/04 03:10:09;;;;;;;7.47;6.22;;;14.50;99.10;;;;;;4895352;29;20220;-77
2023/06/04 03:12:35;;;;;;;8.02;7.25;;;14.40;99.70;;;;;;4900702;29;20609;-77
2023/06/04 03:15:01;;;;;;;8.10;6.80;;;14.20;99.70;;;;;;4895951;29;20250;-77
2023/06/04 03:17:27;;;;;;;7.70;6.17;;;14.40;99.60;;;;;;4895353;29;20960;-77
2023/06/04 03:19:52;;;;;;;7.03;6.43;;;14.40;99.60;;;;;;4896507;29;20469;-76
2023/06/04 03:22:18;;;;;;;9.10;6.80;;;14.20;99.60;;;;;;4910785;29;20249;-76
2023/06/04 03:24:44;;;;;;;9.23;7.70;;;13.90;99.70;;;;;;4895143;29;20186;-76
2023/06/04 03:27:10;;;;;;;7.23;6.63;;;14.20;99.80;;;;;;4896144;29;20226;-77
2023/06/04 03:29:36;;;;;;;7.45;6.75;;;14.20;99.90;;;;;;4897096;29;20703;-77
2023/06/04 03:32:03;;;;;;;6.90;6.30;;;14.20;99.90;;;;;;4911602;29;20186;-77
2023/06/04 03:34:31;;;;;;;7.88;7.18;;;14.10;99.70;;;;;;4913358;29;20265;-76
2023/06/04 03:36:57;;;;;;;8.07;7.05;;;14.20;99.70;;;;;;4896374;29;20188;-76
2023/06/04 03:39:23;;;;;;;7.25;6.65;;;14.00;99.30;;;;;;4893763;29;20285;-77
2023/06/04 03:41:49;;;;;;;7.47;6.87;;;14.30;99.70;;;;;;4897714;29;20296;-76
2023/06/04 03:44:16;;;;;;;9.63;8.00;;;13.80;99.60;;;;;;4915718;29;20496;-77
2023/06/04 03:46:43;;;;;;;7.47;6.82;;;14.20;99.20;;;;;;4915555;29;20450;-76
2023/06/04 03:49:13;;;;;;;6.90;6.20;;;14.30;99.00;;;;;;4912956;29;20261;-76
2023/06/04 03:51:39;;;;;;;8.80;6.90;;;14.30;99.30;;;;;;4896228;29;20559;-76
2023/06/04 03:54:05;;;;;;;11.75;6.75;;;14.30;99.20;;;;;;4897778;29;20186;-76
2023/06/04 03:56:31;;;;;;;7.90;7.20;;;14.10;99.20;;;;;;4898459;29;20516;-76
2023/06/04 03:58:57;;;;;;;7.32;6.63;;;14.30;99.50;;;;;;4910920;29;20522;-76
2023/06/04 04:01:26;;;;;;;7.40;6.40;;;14.10;99.50;;;;;;4910521;29;20214;-76
2023/06/04 04:03:53;;;;;;;8.73;7.35;;;13.80;99.50;;;;;;4901543;29;20477;-76
2023/06/04 04:06:19;;;;;;;8.23;6.32;;;14.30;99.40;;;;;;4900074;29;20190;-77
2023/06/04 04:08:45;;;;;;;7.68;6.88;;;14.40;99.20;;;;;;4895716;29;20196;-76
2023/06/04 04:11:12;;;;;;;6.87;5.73;;;14.30;99.10;;;;;;4913775;29;20217;-76
2023/06/04 04:13:38;;;;;;;6.65;6.05;;;14.40;99.30;;;;;;4896717;29;20647;-76
2023/06/04 04:16:04;;;;;;;7.05;6.43;;;14.20;99.00;;;;;;4895940;29;20192;-76
2023/06/04 04:18:37;;;;;;;7.00;6.40;;;14.40;98.90;;;;;;4911900;29;20179;-76
2023/06/04 04:21:04;;;;;;;6.75;5.55;;;14.30;98.60;;;;;;4915079;29;20213;-76
2023/06/04 04:23:31;;;;;;;5.78;5.18;;;14.50;98.50;;;;;;4908048;29;20191;-76
2023/06/04 04:25:58;;;;;;;6.95;5.60;;;14.60;98.30;;;;;;4896858;29;20193;-76
2023/06/04 04:28:28;;;;;;;6.38;5.35;;;14.40;98.40;;;;;;4895214;29;20186;-76
2023/06/04 04:30:56;;;;;;;8.15;5.97;;;14.30;98.50;;;;;;4895283;29;20633;-75
2023/06/04 04:33:24;;;;;;;6.05;5.45;;;14.40;98.30;;;;;;4894472;29;20360;-76
2023/06/04 04:35:50;;;;;;;6.47;5.78;;;14.50;97.80;;;;;;4897875;29;20182;-76
2023/06/04 04:38:17;;;;;;;5.93;5.32;;;14.40;97.70;;;;;;4895594;29;20201;-75
2023/06/04 04:40:43;;;;;;;6.55;5.47;;;14.30;97.80;;;;;;4909884;29;20703;-76
2023/06/04 04:43:09;;;;;;;7.97;5.87;;;14.60;97.70;;;;;;4893994;29;20202;-76
2023/06/04 04:45:34;;;;;;;5.73;5.23;;;14.80;97.90;;;;;;4915312;29;20220;-76
2023/06/04 04:48:00;;;;;;;7.87;5.70;;;14.90;97.60;;;;;;4911120;29;20615;-76
2023/06/04 04:50:25;;;;;;;5.47;4.97;;;14.90;97.00;;;;;;4910152;29;20206;-77
2023/06/04 04:52:51;;;;;;;5.83;5.23;;;15.10;96.40;;;;;;4910115;29;21535;-77
2023/06/04 04:55:17;;;;;;;5.67;4.83;;;15.10;96.10;;;;;;4896597;29;20193;-77
2023/06/04 04:57:42;;;;;;;5.70;4.50;;;15.10;95.10;;;;;;4893777;29;20217;-77
2023/06/04 05:00:09;;;;;;;4.83;4.43;;;15.50;93.30;;;;;;4912684;29;20591;-77
2023/06/04 05:02:36;;;;;;;4.45;4.05;;;15.60;93.60;;;;;;4911601;29;20242;-77
2023/06/04 05:05:02;;;;;;;5.50;4.57;;;15.50;92.60;;;;;;4891889;29;20185;-77
2023/06/04 05:07:28;;;;;;;4.35;3.90;;;15.90;91.70;;;;;;4894103;29;20622;-77
2023/06/04 05:09:54;;;;;;;4.50;4.10;;;15.80;90.70;;;;;;4896684;29;20202;-76
2023/06/04 05:12:20;;;;;;;4.37;3.97;;;15.50;90.40;;;;;;4897439;29;20190;-77
2023/06/04 05:14:45;;;;;;;5.07;3.63;;;15.80;90.50;;;;;;4907823;29;20222;-77
2023/06/04 05:17:12;;;;;;;4.10;3.70;;;15.30;88.30;;;;;;4912541;29;20226;-77
2023/06/04 05:19:38;;;;;;;4.38;3.30;;;15.70;87.80;;;;;;4912598;29;20206;-77
2023/06/04 05:22:05;;;;;;;4.03;3.50;;;16.30;88.60;;;;;;4895717;29;20225;-77
2023/06/04 05:24:32;;;;;;;4.95;3.20;;;16.30;87.00;;;;;;4895441;29;20446;-77
2023/06/04 05:26:58;;;;;;;5.50;3.53;;;16.50;85.40;;;;;;4911556;29;20205;-77
2023/06/04 05:29:24;;;;;;;5.10;3.50;;;16.50;83.50;;;;;;4910647;29;20656;-77
2023/06/04 05:31:49;;;;;;;3.60;3.13;;;16.50;84.10;;;;;;4911813;29;20197;-76
2023/06/04 05:34:16;;;;;;;3.83;3.43;;;16.40;82.20;;;;;;4897006;29;20477;-76
2023/06/04 05:36:42;;;;;;;3.60;3.33;;;16.80;82.20;;;;;;4913260;29;20461;-76
2023/06/04 05:39:12;;;;;;;3.78;3.40;;;17.00;82.20;;;;;;4894712;29;20491;-76
2023/06/04 05:41:37;;;;;;;4.57;3.75;;;17.00;81.20;;;;;;4908245;29;20210;-77
2023/06/04 05:44:04;;;;;;;4.60;3.40;;;16.80;80.80;;;;;;4895973;29;20191;-75
2023/06/04 05:46:29;;;;;;;3.28;3.05;;;17.00;80.00;;;;;;4895113;29;20183;-76
2023/06/04 05:48:55;;;;;;;3.60;3.30;;;17.20;81.90;;;;;;4911174;29;20188;-76
2023/06/04 05:51:21;;;;;;;2.70;2.50;;;17.00;80.70;;;;;;4892629;29;20264;-76
2023/06/04 05:53:47;;;;;;;2.90;2.70;;;17.00;80.30;;;;;;4893695;29;20605;-76
2023/06/04 05:56:13;;;;;;;4.50;2.83;;;16.90;78.70;;;;;;4910560;29;20498;-77
2023/06/04 05:58:39;;;;;;;3.50;3.20;;;17.00;78.50;;;;;;4910809;29;20195;-77
2023/06/04 06:01:04;;;;;;;5.00;2.87;;;17.20;78.80;;;;;;4893509;29;20214;-78
2023/06/04 06:03:30;;;;;;;5.13;3.50;;;17.00;79.20;;;;;;4892681;29;20450;-76
2023/06/04 06:05:58;;;;;;;3.10;2.80;;;17.00;78.30;;;;;;4910841;29;20191;-77
2023/06/04 06:08:23;;;;;;;3.35;3.05;;;17.30;77.80;;;;;;4894782;29;20649;-76
2023/06/04 06:10:50;;;;;;;4.07;2.80;;;17.30;77.10;;;;;;4909836;29;20244;-78
2023/06/04 06:13:15;;;;;;;3.10;2.80;;;17.50;78.60;;;;;;4897668;29;20273;-76
2023/06/04 06:15:41;;;;;;;3.30;2.70;;;17.50;77.30;;;;;;4914210;29;20633;-78
2023/06/04 06:18:07;;;;;;;3.78;3.42;;;17.50;75.50;;;;;;4914415;29;20600;-78
2023/06/04 06:20:33;;;;;;;3.47;3.03;;;17.60;75.70;;;;;;4895818;29;20221;-70
2023/06/04 06:23:06;;;;;;;3.70;3.20;;;17.70;75.50;;;;;;4909956;29;20191;-73
2023/06/04 06:25:32;;;;;;;4.45;2.75;;;17.90;75.00;;;;;;4895152;29;20186;-70
2023/06/04 06:27:57;;;;;;;2.60;2.40;;;18.00;74.30;;;;;;4907946;29;20910;-68
2023/06/04 06:30:23;;;;;;;2.70;2.50;;;18.10;73.40;;;;;;4912192;29;20230;-76
2023/06/04 06:32:49;;;;;;;6.00;2.93;;;18.40;73.40;;;;;;4894681;29;20178;-76
2023/06/04 06:35:15;;;;;;;2.72;2.47;;;18.40;71.20;;;;;;4893849;29;20182;-76
2023/06/04 06:37:43;;;;;;;2.97;2.65;;;18.60;70.90;;;;;;4893957;29;20649;-75
2023/06/04 06:40:09;;;;;;;2.78;2.58;;;18.70;70.10;;;;;;4894862;29;20959;-77
2023/06/04 06:42:35;;;;;;;3.55;2.47;;;18.80;68.70;;;;;;4894072;29;20583;-74
2023/06/04 06:45:00;;;;;;;3.67;2.40;;;18.80;68.30;;;;;;4896011;29;20399;-77
2023/06/04 06:47:26;;;;;;;3.40;2.53;;;18.90;68.70;;;;;;4910177;29;20186;-77
2023/06/04 06:49:51;;;;;;;3.63;2.30;;;19.10;68.00;;;;;;4896001;29;20255;-69
2023/06/04 06:52:19;;;;;;;3.20;2.50;;;19.10;66.70;;;;;;4909011;29;20706;-69
2023/06/04 06:54:45;;;;;;;3.13;2.83;;;19.20;67.10;;;;;;4914842;29;20221;-69
2023/06/04 06:57:11;;;;;;;3.13;2.90;;;19.50;66.30;;;;;;4915128;29;20213;-69
2023/06/04 06:59:36;;;;;;;5.30;2.67;;;19.80;65.10;;;;;;4911833;29;20494;-67
2023/06/04 07:02:02;;;;;;;3.43;2.90;;;20.30;64.70;;;;;;4910598;29;20659;-68
2023/06/04 07:04:27;;;;;;;3.20;2.90;;;20.60;62.50;;;;;;4913854;29;20192;-68
2023/06/04 07:06:53;;;;;;;2.73;2.53;;;23.00;59.80;;;;;;4910583;29;20567;-68
2023/06/04 07:09:19;;;;;;;2.80;2.50;;;25.10;55.00;;;;;;4896226;29;20220;-68
2023/06/04 07:11:44;;;;;;;2.80;2.60;;;25.40;51.50;;;;;;4905592;29;20192;-69
2023/06/04 07:14:10;;;;;;;2.90;2.67;;;25.80;51.00;;;;;;4894246;29;20192;-68
2023/06/04 07:23:20;;;;;;;3.60;2.50;;;25.50;49.80;;;;;;4923351;23;21054;-69
2023/06/04 07:25:46;;;;;;;2.73;2.43;;;26.00;48.20;;;;;;4916322;29;20450;-69
2023/06/04 07:28:12;;;;;;;5.97;3.03;;;28.60;46.60;;;;;;4918189;29;20194;-69
2023/06/04 07:30:38;;;;;;;3.07;2.77;;;28.30;44.80;;;;;;4918117;29;20548;-70
2023/06/04 07:33:04;;;;;;;5.20;2.70;;;31.10;41.80;;;;;;4909996;29;20196;-70
2023/06/04 07:35:30;;;;;;;3.20;2.90;;;32.50;39.00;;;;;;4917845;29;20445;-70
2023/06/04 07:37:55;;;;;;;3.63;3.33;;;32.60;37.30;;;;;;4916691;29;20457;-69
2023/06/04 07:40:21;;;;;;;4.13;2.80;;;31.90;36.70;;;;;;4914948;29;20261;-70
2023/06/04 07:42:48;;;;;;;3.40;2.47;;;32.30;36.70;;;;;;4917656;29;20228;-70
2023/06/04 07:45:14;;;;;;;5.63;2.90;;;33.90;34.60;;;;;;4916989;29;20238;-71
2023/06/04 07:47:40;;;;;;;2.70;2.50;;;32.80;33.50;;;;;;4918971;29;20453;-70
2023/06/04 07:50:06;;;;;;;3.43;3.13;;;33.40;34.60;;;;;;4899268;29;20469;-70
2023/06/04 07:52:32;;;;;;;2.80;2.47;;;34.30;33.00;;;;;;4902928;29;20220;-71
2023/06/04 07:54:59;;;;;;;3.03;2.30;;;34.30;33.10;;;;;;4913710;29;20478;-69
2023/06/04 07:57:25;;;;;;;3.30;2.80;;;37.00;31.70;;;;;;4899020;29;20264;-69
2023/06/04 07:59:51;;;;;;;2.80;2.60;;;36.90;29.90;;;;;;4918068;29;20866;-69
2023/06/04 08:02:17;;;;;;;2.63;2.43;;;37.20;29.50;;;;;;4915667;29;20217;-70
2023/06/04 08:04:42;;;;;;;3.90;2.90;;;37.30;29.00;;;;;;4919763;29;20430;-70
2023/06/04 08:07:08;;;;;;;2.80;2.60;;;35.50;29.50;;;;;;4920967;29;20429;-69
2023/06/04 08:09:34;;;;;;;2.93;2.60;;;37.20;29.80;;;;;;4917086;29;20673;-71
2023/06/04 08:12:00;;;;;;;3.03;2.77;;;35.60;28.70;;;;;;4919473;29;20185;-69
2023/06/04 08:14:27;;;;;;;2.90;2.70;;;35.80;29.90;;;;;;4921685;29;20178;-72
2023/06/04 08:16:53;;;;;;;3.13;2.87;;;36.90;29.30;;;;;;4916156;29;20465;-69
2023/06/04 08:19:19;;;;;;;2.97;2.73;;;38.00;28.40;;;;;;4917185;29;20859;-68
2023/06/04 08:21:46;;;;;;;3.13;2.73;;;36.30;28.70;;;;;;4914649;29;20487;-69
2023/06/04 08:24:12;;;;;;;3.30;3.10;;;36.80;29.30;;;;;;4919994;29;20445;-71
2023/06/04 08:26:38;;;;;;;2.83;2.63;;;36.50;29.10;;;;;;4916682;29;20446;-70
2023/06/04 08:29:04;;;;;;;3.77;3.30;;;36.80;29.10;;;;;;4916823;29;20446;-77
2023/06/04 08:31:30;;;;;;;3.40;3.10;;;35.80;28.50;;;;;;4917027;29;20210;-69
2023/06/04 08:33:56;;;;;;;3.50;2.50;;;34.30;30.80;;;;;;4916643;29;20282;-69
2023/06/04 08:36:22;;;;;;;3.70;3.10;;;35.50;30.20;;;;;;4915518;29;20537;-69
2023/06/04 08:38:52;;;;;;;4.70;3.00;;;36.50;29.70;;;;;;4915987;29;20201;-69
2023/06/04 08:41:36;;;;;;;3.10;2.80;;;36.50;29.60;;;;;;4917836;29;20209;-69
2023/06/04 08:44:06;;;;;;;3.30;3.00;;;36.90;29.40;;;;;;4917252;29;20446;-68
2023/06/04 08:46:32;;;;;;;3.57;2.97;;;36.30;28.90;;;;;;4901752;29;20453;-68
2023/06/04 08:49:02;;;;;;;4.90;2.97;;;36.30;29.00;;;;;;4915982;29;20517;-69
2023/06/04 08:51:32;;;;;;;3.30;3.00;;;36.30;29.10;;;;;;4920478;29;20470;-68
2023/06/04 08:53:58;;;;;;;3.00;2.80;;;35.80;29.40;;;;;;4915986;29;20857;-67
2023/06/04 08:56:25;;;;;;;3.07;2.80;;;35.70;29.90;;;;;;4914445;29;20466;-68
2023/06/04 08:58:52;;;;;;;3.03;2.83;;;35.70;29.80;;;;;;4918424;29;21138;-69
2023/06/04 09:01:18;;;;;;;3.27;3.07;;;36.00;29.10;;;;;;4919292;29;20565;-68
2023/06/04 09:03:44;;;;;;;3.47;3.23;;;36.60;28.90;;;;;;4920374;29;20516;-68
2023/06/04 09:06:10;;;;;;;3.47;2.90;;;35.90;29.60;;;;;;4915378;29;20575;-68
2023/06/04 09:08:39;;;;;;;3.33;3.10;;;36.70;29.40;;;;;;4919267;29;20934;-69
2023/06/04 09:11:07;;;;;;;3.30;3.00;;;36.90;29.10;;;;;;4914118;29;20316;-69
2023/06/04 09:13:35;;;;;;;4.70;3.23;;;37.40;29.10;;;;;;4912582;29;20450;-69
2023/06/04 09:16:06;;;;;;;4.07;3.23;;;36.40;28.80;;;;;;4917539;29;20456;-69
2023/06/04 09:18:32;;;;;;;4.13;3.23;;;36.50;29.30;;;;;;4915242;29;20963;-70
2023/06/04 09:21:01;;;;;;;3.27;2.97;;;37.40;29.00;;;;;;4916632;29;20481;-68
2023/06/04 09:23:27;;;;;;;3.40;3.03;;;38.20;28.20;;;;;;4914919;29;20510;-69
2023/06/04 09:25:54;;;;;;;3.60;3.30;;;38.10;27.70;;;;;;4914892;29;20446;-69
2023/06/04 09:28:20;;;;;;;3.50;3.20;;;36.80;27.70;;;;;;4916032;29;20468;-69
2023/06/04 09:30:55;;;;;;;4.57;2.77;;;37.00;29.10;;;;;;4915098;29;20465;-69
2023/06/04 09:33:20;;;;;;;3.03;2.83;;;36.90;28.60;;;;;;4911912;29;20437;-69
2023/06/04 09:35:56;;;;;;;5.73;3.30;;;36.80;28.40;;;;;;4915614;29;20476;-68
2023/06/04 09:38:22;;;;;;;3.33;3.00;;;36.40;28.60;;;;;;4919584;29;20200;-69
2023/06/04 09:40:49;;;;;;;4.23;3.63;;;37.00;28.30;;;;;;4915047;29;20901;-69
2023/06/04 09:43:24;;;;;;;3.33;3.03;;;37.90;27.90;;;;;;4914321;29;20819;-69
2023/06/04 09:45:49;;;;;;;4.70;3.20;;;38.10;27.70;;;;;;4919756;29;20456;-69
2023/06/04 09:48:22;;;;;;;4.50;3.03;;;38.30;27.30;;;;;;4919545;29;20450;-72
2023/06/04 09:50:48;;;;;;;3.20;2.83;;;39.00;26.70;;;;;;4907040;29;20249;-74
2023/06/04 09:53:23;;;;;;;3.17;2.97;;;39.20;26.40;;;;;;4915059;29;20813;-71
2023/06/04 09:56:03;;;;;;;4.43;3.43;;;37.50;26.60;;;;;;4910444;29;20474;-71
2023/06/04 09:58:29;;;;;;;4.30;3.90;;;38.10;27.10;;;;;;4919249;29;20450;-70
2023/06/04 10:00:58;;;;;;;3.40;3.07;;;38.10;27.30;;;;;;4922077;29;20484;-72
2023/06/04 10:03:36;;;;;;;4.43;3.53;;;38.00;26.40;;;;;;4910759;29;20457;-74
2023/06/04 10:06:06;;;;;;;3.93;3.63;;;38.20;26.20;;;;;;4923497;29;20445;-74
2023/06/04 10:08:34;;;;;;;3.67;3.37;;;38.20;26.30;;;;;;4914708;29;20483;-74
2023/06/04 10:11:01;;;;;;;3.93;3.63;;;38.80;26.20;;;;;;4904039;29;20457;-74
2023/06/04 10:13:40;;;;;;;3.87;3.33;;;37.70;25.90;;;;;;4918009;29;20469;-74
2023/06/04 10:16:07;;;;;;;3.57;3.30;;;37.80;26.30;;;;;;4919006;29;20453;-74
2023/06/04 10:18:34;;;;;;;3.60;3.27;;;37.90;26.30;;;;;;4916600;29;20457;-74
2023/06/04 10:21:00;;;;;;;12.10;4.10;;;38.10;26.10;;;;;;4921720;29;20563;-74
2023/06/04 10:23:26;;;;;;;3.70;3.40;;;37.80;26.20;;;;;;4896769;29;20462;-74
2023/06/04 10:25:53;;;;;;;4.23;3.83;;;36.90;26.60;;;;;;4912813;29;20492;-74
2023/06/04 10:28:20;;;;;;;5.00;4.00;;;35.40;27.70;;;;;;4915944;29;20510;-75
2023/06/04 10:30:50;;;;;;;4.60;4.20;;;34.30;28.80;;;;;;4921806;29;20473;-74
2023/06/04 10:33:24;;;;;;;4.23;3.97;;;34.30;29.00;;;;;;4915940;29;20453;-73
2023/06/04 10:35:53;;;;;;;4.00;3.70;;;34.40;28.80;;;;;;4903117;29;20517;-73
2023/06/04 10:38:21;;;;;;;4.03;3.73;;;33.20;29.70;;;;;;4920724;29;20840;-74
2023/06/04 10:40:47;;;;;;;4.17;3.77;;;33.60;29.90;;;;;;4905202;29;20533;-75
2023/06/04 10:43:15;;;;;;;4.17;3.77;;;34.30;29.50;;;;;;4910526;29;20852;-73
2023/06/04 10:45:42;;;;;;;5.77;4.67;;;34.40;29.30;;;;;;4913211;29;20453;-72
2023/06/04 10:48:09;;;;;;;5.27;3.87;;;34.00;28.80;;;;;;4917256;29;20446;-73
2023/06/04 10:50:47;;;;;;;4.17;3.83;;;34.90;28.80;;;;;;4918238;29;20461;-74
2023/06/04 10:53:13;;;;;;;4.90;4.50;;;35.30;28.00;;;;;;4918307;29;20954;-74
2023/06/04 10:55:48;;;;;;;4.53;3.97;;;35.70;28.90;;;;;;4915690;29;20448;-74
2023/06/04 10:58:15;;;;;;;4.83;3.60;;;36.20;28.00;;;;;;4917572;29;20195;-73
2023/06/04 11:00:42;;;;;;;4.57;3.57;;;36.00;27.70;;;;;;4900487;29;20469;-74
2023/06/04 11:03:10;;;;;;;4.63;3.63;;;36.00;27.90;;;;;;4912107;29;20819;-74
2023/06/04 11:05:38;;;;;;;4.20;3.80;;;35.40;28.00;;;;;;4915444;29;20457;-74
2023/06/04 11:08:05;;;;;;;4.40;3.70;;;33.70;28.60;;;;;;4922369;29;20814;-73
2023/06/04 11:10:36;;;;;;;3.73;3.43;;;34.00;29.60;;;;;;4899798;29;20462;-74
2023/06/04 11:13:07;;;;;;;3.67;3.17;;;35.40;28.60;;;;;;4918637;29;20434;-73
2023/06/04 11:15:41;;;;;;;3.73;3.43;;;35.10;28.90;;;;;;4915839;29;20446;-74
2023/06/04 11:18:07;;;;;;;6.93;4.20;;;35.70;28.40;;;;;;4920844;29;20542;-73
2023/06/04 11:20:32;;;;;;;3.80;3.60;;;34.60;29.00;;;;;;4918584;29;20969;-73
2023/06/04 11:23:00;;;;;;;4.00;3.60;;;34.40;29.10;;;;;;4917043;29;20213;-73
2023/06/04 11:25:26;;;;;;;4.50;3.43;;;34.30;29.30;;;;;;4898676;29;20220;-73
2023/06/04 11:27:53;;;;;;;4.70;4.30;;;33.60;30.10;;;;;;4914292;29;20513;-74
2023/06/04 11:30:19;;;;;;;4.47;4.13;;;32.20;30.30;;;;;;4917700;29;20474;-73
2023/06/04 11:32:45;;;;;;;5.30;4.80;;;32.50;31.10;;;;;;4905770;29;20477;-73
2023/06/04 11:35:11;;;;;;;3.90;3.60;;;31.20;31.50;;;;;;4901764;29;20452;-74
2023/06/04 11:37:38;;;;;;;6.33;4.47;;;30.70;32.50;;;;;;4908897;29;20460;-73
2023/06/04 11:40:17;;;;;;;3.77;3.47;;;31.20;32.70;;;;;;4900485;29;20219;-73
2023/06/04 11:42:43;;;;;;;5.47;3.90;;;31.40;32.00;;;;;;4914353;29;20488;-73
2023/06/04 11:45:19;;;;;;;4.63;4.03;;;31.40;32.40;;;;;;4906113;29;20654;-74
2023/06/04 11:47:55;;;;;;;5.83;4.10;;;31.10;31.70;;;;;;4905796;29;20446;-73
2023/06/04 11:50:22;;;;;;;4.50;4.10;;;31.00;32.40;;;;;;4906234;29;20454;-74
2023/06/04 11:52:48;;;;;;;4.53;4.10;;;30.20;32.80;;;;;;4919179;29;20506;-74
2023/06/04 11:55:17;;;;;;;4.53;4.13;;;29.80;34.00;;;;;;4916022;29;20446;-73
2023/06/04 11:57:43;;;;;;;4.33;3.90;;;29.50;34.10;;;;;;4916164;29;20450;-73
2023/06/04 12:00:10;;;;;;;4.80;4.40;;;29.30;34.80;;;;;;4915999;29;21118;-74
2023/06/04 12:02:52;;;;;;;5.37;4.40;;;28.80;35.10;;;;;;4917712;29;20487;-73
2023/06/04 12:05:22;;;;;;;4.70;4.30;;;28.30;35.30;;;;;;4903699;29;20850;-73
2023/06/04 12:07:50;;;;;;;6.10;4.60;;;28.60;36.10;;;;;;4916549;29;20958;-74
2023/06/04 12:10:17;;;;;;;3.97;3.63;;;28.70;36.00;;;;;;4922862;29;21054;-73
2023/06/04 12:12:43;;;;;;;4.10;3.80;;;28.00;36.60;;;;;;4914981;29;20448;-73
2023/06/04 12:15:10;;;;;;;4.60;4.07;;;27.90;36.70;;;;;;4922003;29;20473;-74
2023/06/04 12:17:37;;;;;;;5.10;4.60;;;27.70;37.20;;;;;;4920408;29;20191;-73
2023/06/04 12:20:05;;;;;;;4.80;4.30;;;27.60;37.30;;;;;;4924166;29;20465;-74
2023/06/04 12:22:31;;;;;;;5.80;4.00;;;27.00;37.10;;;;;;4920013;29;20480;-74
2023/06/04 12:25:02;;;;;;;5.50;3.90;;;26.90;38.00;;;;;;4900083;29;20442;-74
2023/06/04 12:27:28;;;;;;;4.53;4.17;;;29.20;39.40;;;;;;4911784;29;20242;-74
2023/06/04 12:29:58;;;;;;;4.63;4.13;;;27.00;37.60;;;;;;4919463;29;20819;-74
2023/06/04 12:32:23;;;;;;;5.47;4.80;;;27.00;37.80;;;;;;4917354;29;20229;-73
2023/06/04 12:34:49;;;;;;;5.27;4.03;;;27.20;37.70;;;;;;4914717;29;20556;-74
2023/06/04 12:37:15;;;;;;;5.93;4.80;;;27.30;37.60;;;;;;4916709;29;20669;-75
2023/06/04 12:39:40;;;;;;;5.37;4.47;;;27.40;37.20;;;;;;4902266;29;20257;-74
2023/06/04 12:42:08;;;;;;;4.70;4.30;;;27.30;37.40;;;;;;4907608;29;20570;-73
2023/06/04 12:44:36;;;;;;;4.03;3.63;;;27.30;37.60;;;;;;4915943;29;20925;-74
2023/06/04 12:47:02;;;;;;;5.30;4.60;;;27.20;37.90;;;;;;4903725;29;20509;-74
2023/06/04 12:49:27;;;;;;;5.37;4.30;;;27.00;37.60;;;;;;4917294;29;20454;-74
2023/06/04 12:51:53;;;;;;;4.57;4.10;;;26.90;37.80;;;;;;4916485;29;20449;-74